createdAt,value
2019-04-07T00:04:50.248Z,42.54
2019-04-07T00:09:58.670Z,43.47
2019-04-07T00:15:07.065Z,46.85
2019-04-07T00:20:15.490Z,47.35
2019-04-07T00:25:23.861Z,48.31
2019-04-07T00:30:32.345Z,48.66
2019-04-07T00:35:40.576Z,49.59
2019-04-07T00:40:49.301Z,48.61
2019-04-07T00:45:57.025Z,47.87
2019-04-07T00:51:06.628Z,45.15
2019-04-07T00:56:13.890Z,43.23
2019-04-07T01:01:22.851Z,43.42
2019-04-07T01:06:30.255Z,41.27
2019-04-07T01:11:38.608Z,42.28
2019-04-07T01:16:47.185Z,43.11
2019-04-07T01:21:55.785Z,42.19
2019-04-07T01:27:02.978Z,41.26
2019-04-07T01:32:11.477Z,42.34
2019-04-07T01:37:19.880Z,41.83
2019-04-07T01:42:28.129Z,42.56
2019-04-07T01:47:36.293Z,43.68
2019-04-07T01:52:43.832Z,43.29
2019-04-07T01:57:52.122Z,44.90
2019-04-07T02:03:16.408Z,43.22
2019-04-07T02:08:09.778Z,41.67
2019-04-07T02:13:08.950Z,42.53
2019-04-07T02:18:23.459Z,40.49
2019-04-07T02:23:22.736Z,40.96
2019-04-07T02:28:30.865Z,40.82
2019-04-07T02:33:39.442Z,40.53
2019-04-07T02:38:46.708Z,40.39
2019-04-07T02:43:55.581Z,41.05
2019-04-07T02:49:02.468Z,41.39
2019-04-07T02:54:10.647Z,41.42
2019-04-07T02:59:19.727Z,40.44
2019-04-07T03:04:26.530Z,39.75
2019-04-07T03:09:34.940Z,41.79
2019-04-07T03:14:42.965Z,40.07
2019-04-07T03:19:52.023Z,40.07
2019-04-07T03:24:58.744Z,40.26
2019-04-07T03:30:07.032Z,41.73
2019-04-07T03:35:17.846Z,42.05
2019-04-07T03:40:22.973Z,42.81
2019-04-07T03:45:31.340Z,43.15
2019-04-07T03:50:39.557Z,41.19
2019-04-07T03:55:47.903Z,42.67
2019-04-07T04:00:56.287Z,42.46
2019-04-07T04:06:04.735Z,42.78
2019-04-07T04:11:11.887Z,43.30
2019-04-07T04:16:20.177Z,43.65
2019-04-07T04:21:28.858Z,42.70
2019-04-07T04:26:36.092Z,42.36
2019-04-07T04:31:44.183Z,42.96
2019-04-07T04:36:53.108Z,41.92
2019-04-07T04:42:00.055Z,41.74
2019-04-07T04:47:08.233Z,41.23
2019-04-07T04:52:16.365Z,40.22
2019-04-07T04:57:25.210Z,42.08
2019-04-07T05:02:32.590Z,42.44
2019-04-07T05:07:49.777Z,42.22
2019-04-07T05:12:48.246Z,41.74
2019-04-07T05:17:56.018Z,40.96
2019-04-07T05:23:03.006Z,40.50
2019-04-07T05:28:11.305Z,39.95
2019-04-07T05:33:20.021Z,40.24
2019-04-07T05:38:26.932Z,38.87
2019-04-07T05:43:35.477Z,38.58
2019-04-07T05:48:42.578Z,38.84
2019-04-07T05:53:50.710Z,39.41
2019-04-07T05:58:58.797Z,37.94
2019-04-07T06:04:07.570Z,37.17
2019-04-07T06:09:17.721Z,38.02
2019-04-07T06:14:22.667Z,37.61
2019-04-07T06:19:30.337Z,37.29
2019-04-07T06:24:38.338Z,37.50
2019-04-07T06:29:46.344Z,37.32
2019-04-07T06:34:55.110Z,36.98
2019-04-07T06:40:02.326Z,36.93
2019-04-07T06:45:10.844Z,37.59
2019-04-07T06:50:19.094Z,38.12
2019-04-07T06:55:28.675Z,37.50
2019-04-07T07:00:41.875Z,36.52
2019-04-07T07:05:46.240Z,36.78
2019-04-07T07:10:44.716Z,36.10
2019-04-07T07:15:53.276Z,35.17
2019-04-07T07:21:09.963Z,35.98
2019-04-07T07:26:08.171Z,36.40
2019-04-07T07:31:26.708Z,35.02
2019-04-07T07:36:28.875Z,33.55
2019-04-07T07:41:27.982Z,33.60
2019-04-07T07:46:34.404Z,32.79
2019-04-07T07:51:48.544Z,30.75
2019-04-07T07:56:52.421Z,32.36
2019-04-07T08:01:51.396Z,32.47
2019-04-07T08:07:05.493Z,31.43
2019-04-07T08:12:09.458Z,31.03
2019-04-07T08:17:33.961Z,30.98
2019-04-07T08:22:33.741Z,29.82
2019-04-07T08:32:16.559Z,27.85
2019-04-07T08:37:24.105Z,28.12
2019-04-07T08:42:33.961Z,26.49
2019-04-07T08:47:42.530Z,26.49
2019-04-07T08:52:52.134Z,27.80
2019-04-07T08:58:02.252Z,28.16
2019-04-07T09:03:11.460Z,28.39
2019-04-07T09:08:14.967Z,28.06
2019-04-07T09:13:22.713Z,27.40
2019-04-07T09:18:32.014Z,27.77
2019-04-07T09:23:39.302Z,28.20
2019-04-07T09:28:47.635Z,26.47
2019-04-07T09:33:56.223Z,26.75
2019-04-07T09:39:05.615Z,27.39
2019-04-07T09:44:12.706Z,25.30
2019-04-07T09:49:22.312Z,25.81
2019-04-07T09:54:28.344Z,24.72
2019-04-07T09:59:36.565Z,22.27
2019-04-07T10:04:45.061Z,21.29
2019-04-07T10:10:04.747Z,21.60
2019-04-07T10:15:01.996Z,17.92
2019-04-07T10:20:08.808Z,17.11
2019-04-07T10:25:17.131Z,15.68
2019-04-07T10:30:25.966Z,16.03
2019-04-07T10:35:33.536Z,15.01
2019-04-07T10:40:41.556Z,14.91
2019-04-07T10:45:50.555Z,14.65
2019-04-07T10:51:00.177Z,14.77
2019-04-07T11:06:13.835Z,12.87
2019-04-07T11:11:23.125Z,13.33
2019-04-07T11:16:31.226Z,13.51
2019-04-07T11:21:37.930Z,13.20
2019-04-07T11:26:47.434Z,13.93
2019-04-07T11:31:54.942Z,13.48
2019-04-07T11:37:02.554Z,14.09
2019-04-07T11:42:11.764Z,13.98
2019-04-07T11:47:22.996Z,13.47
2019-04-07T11:51:32.446Z,11.36
2019-04-07T11:57:31.216Z,15.11
2019-04-07T12:02:40.447Z,14.91
2019-04-07T12:07:45.952Z,13.93
